Amenia, North Dakota
Current Conditions -  °F | °C
As of 9:53 PM on Saturday 25 Oct 2014 (Local Time) from KFAR Reporting Station
Clear Clear  
Wind Chill: 38°   Ceiling: Unl
Heat Index: 41°   Visibility: 10mi
Dew Point: 23°   Wind: 5mph
Humidity: 49%   Direction: 170°S
Pressure: 30.03"   Gusts: NA
Location:  47°N, 97.22°W
Report Text: KFAR 260253Z 17004KT 10SM CLR 05/M05 A3003 RMK AO2 SLP176 T00501050 55006
Loading
Personal Weather Stations






























Interactive Weather Map
Tropical Storm Tracking
New forecast layout! Learn more

10-Day Weather Forecast

Advertisements
Track Severe Weather on mobile